createdAt,value
2017-09-03T00:00:39.248Z,0
2017-09-03T00:01:49.517Z,0
2017-09-03T00:02:59.786Z,0
2017-09-03T00:04:10.050Z,0
2017-09-03T00:05:19.995Z,0
2017-09-03T00:06:30.261Z,0
2017-09-03T00:07:40.211Z,0
2017-09-03T00:08:50.478Z,0
2017-09-03T00:10:00.419Z,0
2017-09-03T00:11:10.693Z,0
2017-09-03T00:12:20.957Z,0
2017-09-03T00:13:31.250Z,0
2017-09-03T00:14:41.514Z,0
2017-09-03T00:15:51.458Z,0
2017-09-03T00:17:01.722Z,0
2017-09-03T00:18:11.668Z,0
2017-09-03T00:19:21.609Z,0
2017-09-03T00:20:31.555Z,0
2017-09-03T00:21:41.857Z,0
2017-09-03T00:22:51.799Z,0
2017-09-03T00:24:02.073Z,0
2017-09-03T00:25:12.338Z,0
2017-09-03T00:26:21.961Z,0
2017-09-03T00:27:31.903Z,0
2017-09-03T00:28:42.174Z,0
2017-09-03T00:29:52.441Z,0
2017-09-03T00:31:02.385Z,0
2017-09-03T00:32:12.328Z,0
2017-09-03T00:33:22.280Z,0
2017-09-03T00:34:32.543Z,0
2017-09-03T00:35:42.812Z,0
2017-09-03T00:36:52.756Z,0
2017-09-03T00:38:03.021Z,0
2017-09-03T00:39:12.972Z,0
2017-09-03T00:40:23.243Z,0
2017-09-03T00:41:32.864Z,0
2017-09-03T00:42:43.140Z,0
2017-09-03T00:43:53.415Z,0
2017-09-03T00:45:03.355Z,0
2017-09-03T00:46:13.624Z,0
2017-09-03T00:47:23.891Z,0
2017-09-03T00:48:33.834Z,0
2017-09-03T00:49:44.107Z,0
2017-09-03T00:50:54.376Z,0
2017-09-03T00:52:04.642Z,0
2017-09-03T00:53:14.590Z,0
2017-09-03T00:54:24.539Z,0
2017-09-03T00:55:34.805Z,0
2017-09-03T00:56:45.076Z,0
2017-09-03T00:57:55.345Z,0
2017-09-03T00:59:05.294Z,0
2017-09-03T01:00:15.561Z,0
2017-09-03T01:01:25.507Z,0
2017-09-03T01:02:35.449Z,0
2017-09-03T01:03:45.717Z,0
2017-09-03T01:04:55.980Z,0
2017-09-03T01:06:05.930Z,0
2017-09-03T01:07:16.196Z,0
2017-09-03T01:08:26.470Z,0
2017-09-03T01:09:36.415Z,0
2017-09-03T01:10:46.681Z,0
2017-09-03T01:11:56.952Z,0
2017-09-03T01:13:07.232Z,0
2017-09-03T01:14:17.497Z,0
2017-09-03T01:15:27.773Z,0
2017-09-03T01:16:38.034Z,0
2017-09-03T01:17:47.662Z,0
2017-09-03T01:18:57.609Z,0
2017-09-03T01:20:07.554Z,0
2017-09-03T01:21:17.818Z,0
2017-09-03T01:22:27.767Z,0
2017-09-03T01:23:37.709Z,0
2017-09-03T01:24:47.974Z,0
2017-09-03T01:25:58.236Z,0
2017-09-03T01:27:08.501Z,0
2017-09-03T01:28:18.771Z,0
2017-09-03T01:29:28.716Z,0
2017-09-03T01:30:38.659Z,0
2017-09-03T01:31:48.929Z,0
2017-09-03T01:32:59.195Z,0
2017-09-03T01:34:08.832Z,0
2017-09-03T01:35:19.104Z,0
2017-09-03T01:36:29.370Z,0
2017-09-03T01:37:39.317Z,0
2017-09-03T01:38:49.292Z,0
2017-09-03T01:39:59.561Z,0
2017-09-03T01:41:09.507Z,0
2017-09-03T01:42:19.778Z,0
2017-09-03T01:43:29.723Z,0
2017-09-03T01:44:39.991Z,0
2017-09-03T01:45:50.261Z,0
2017-09-03T01:47:00.537Z,0
2017-09-03T01:48:10.811Z,0
2017-09-03T01:49:21.076Z,0
2017-09-03T01:50:31.343Z,0
2017-09-03T01:51:41.605Z,0
2017-09-03T01:52:51.859Z,0
2017-09-03T01:54:01.803Z,0
2017-09-03T01:55:12.073Z,0
2017-09-03T01:56:22.016Z,0
2017-09-03T01:57:32.286Z,0
2017-09-03T01:58:42.551Z,0
2017-09-03T01:59:52.816Z,0
2017-09-03T02:01:03.089Z,0
2017-09-03T02:02:13.034Z,0
2017-09-03T02:03:23.304Z,0
2017-09-03T02:04:33.397Z,0
2017-09-03T02:05:43.345Z,0
2017-09-03T02:06:53.612Z,0
2017-09-03T02:08:03.881Z,0
2017-09-03T02:09:14.149Z,0
2017-09-03T02:10:24.772Z,0
2017-09-03T02:11:35.038Z,0
2017-09-03T02:12:44.991Z,0
2017-09-03T02:13:55.259Z,0
2017-09-03T02:15:05.530Z,0
2017-09-03T02:16:19.466Z,0
2017-09-03T02:17:29.410Z,0
2017-09-03T02:18:39.352Z,0
2017-09-03T02:19:49.620Z,0
2017-09-03T02:20:59.885Z,0
2017-09-03T02:22:09.507Z,0
2017-09-03T02:23:19.775Z,0
2017-09-03T02:24:30.050Z,0
2017-09-03T02:25:40.318Z,0
2017-09-03T02:26:50.581Z,0
2017-09-03T02:28:00.521Z,0
2017-09-03T02:29:10.792Z,0
2017-09-03T02:30:21.063Z,0
2017-09-03T02:31:31.016Z,0
2017-09-03T02:32:41.288Z,0
2017-09-03T02:33:51.557Z,0
2017-09-03T02:35:01.513Z,0
2017-09-03T02:36:11.457Z,0
2017-09-03T02:37:21.405Z,0
2017-09-03T02:38:31.351Z,0
2017-09-03T02:39:41.618Z,0
2017-09-03T02:40:51.887Z,0
2017-09-03T02:42:01.831Z,0
2017-09-03T02:43:11.784Z,0
2017-09-03T02:44:22.046Z,0
2017-09-03T02:45:32.310Z,0
2017-09-03T02:46:42.584Z,0
2017-09-03T02:47:52.850Z,0
2017-09-03T02:49:03.118Z,0
2017-09-03T02:50:13.062Z,0
2017-09-03T02:51:23.339Z,0
2017-09-03T02:52:33.610Z,0
2017-09-03T02:53:43.883Z,0
2017-09-03T02:54:54.149Z,0
2017-09-03T02:56:04.098Z,0
2017-09-03T02:57:14.042Z,0
2017-09-03T02:58:23.665Z,0
2017-09-03T02:59:33.609Z,0
2017-09-03T03:00:43.552Z,0
2017-09-03T03:01:53.497Z,0
2017-09-03T03:03:03.765Z,0
2017-09-03T03:04:13.710Z,0
2017-09-03T03:05:23.986Z,0
2017-09-03T03:06:33.927Z,0
2017-09-03T03:07:43.872Z,0
2017-09-03T03:08:54.135Z,0
2017-09-03T03:10:04.399Z,0
2017-09-03T03:11:14.346Z,0
2017-09-03T03:12:24.613Z,0
2017-09-03T03:13:34.561Z,0
2017-09-03T03:14:44.823Z,0
2017-09-03T03:15:55.090Z,0
2017-09-03T03:17:05.358Z,0
2017-09-03T03:18:15.631Z,0
2017-09-03T03:19:25.894Z,0
2017-09-03T03:20:35.835Z,0
2017-09-03T03:21:46.099Z,0
2017-09-03T03:22:56.365Z,0
2017-09-03T03:24:06.318Z,0
2017-09-03T03:25:16.260Z,0
2017-09-03T03:26:26.531Z,0
2017-09-03T03:27:36.474Z,0
2017-09-03T03:28:46.418Z,0
2017-09-03T03:29:56.684Z,0
2017-09-03T03:31:06.629Z,0
2017-09-03T03:32:16.575Z,0
2017-09-03T03:33:26.522Z,0
2017-09-03T03:34:36.142Z,0
2017-09-03T03:35:46.089Z,0
2017-09-03T03:36:56.036Z,0
2017-09-03T03:38:05.656Z,4
2017-09-03T03:39:15.922Z,4
2017-09-03T03:40:26.189Z,4
2017-09-03T03:41:36.453Z,0
2017-09-03T03:42:46.716Z,4
2017-09-03T03:43:56.988Z,4
2017-09-03T03:45:06.930Z,4
2017-09-03T03:46:17.198Z,4
2017-09-03T03:47:26.817Z,4
2017-09-03T03:48:36.442Z,4
2017-09-03T03:49:46.712Z,8
2017-09-03T03:50:57.006Z,8
2017-09-03T03:52:07.283Z,12
2017-09-03T03:53:17.550Z,16
2017-09-03T03:54:27.818Z,16
2017-09-03T03:55:37.769Z,20
2017-09-03T03:56:47.396Z,20
2017-09-03T03:57:57.660Z,24
2017-09-03T03:59:07.602Z,28
2017-09-03T04:00:17.555Z,28
2017-09-03T04:01:27.825Z,32
2017-09-03T04:02:38.089Z,36
2017-09-03T04:03:48.356Z,36
2017-09-03T04:04:58.623Z,36
2017-09-03T04:06:08.894Z,40
2017-09-03T04:07:19.159Z,44
2017-09-03T04:08:28.780Z,48
2017-09-03T04:09:38.735Z,48
2017-09-03T04:10:49.004Z,56
2017-09-03T04:11:59.272Z,56
2017-09-03T04:13:09.571Z,60
2017-09-03T04:14:19.833Z,68
2017-09-03T04:15:30.108Z,76
2017-09-03T04:16:40.058Z,80
2017-09-03T04:17:50.322Z,84
2017-09-03T04:19:00.590Z,96
2017-09-03T04:20:10.217Z,104
2017-09-03T04:21:20.164Z,112
2017-09-03T04:22:30.430Z,124
2017-09-03T04:23:40.379Z,136
2017-09-03T04:24:50.655Z,144
2017-09-03T04:26:00.606Z,156
2017-09-03T04:27:10.881Z,164
2017-09-03T04:28:21.148Z,176
2017-09-03T04:29:31.419Z,184
2017-09-03T04:30:41.372Z,196
2017-09-03T04:31:51.315Z,208
2017-09-03T04:33:01.579Z,220
2017-09-03T04:34:11.852Z,232
2017-09-03T04:35:22.120Z,244
2017-09-03T04:36:32.064Z,256
2017-09-03T04:37:42.329Z,272
2017-09-03T04:38:52.279Z,284
2017-09-03T04:40:02.225Z,300
2017-09-03T04:41:12.495Z,316
2017-09-03T04:42:22.763Z,332
2017-09-03T04:43:32.706Z,352
2017-09-03T04:44:42.973Z,368
2017-09-03T04:45:53.244Z,384
2017-09-03T04:47:03.531Z,396
2017-09-03T04:48:13.796Z,416
2017-09-03T04:49:24.061Z,432
2017-09-03T04:50:33.745Z,448
2017-09-03T04:51:44.014Z,464
2017-09-03T04:52:53.967Z,480
2017-09-03T04:54:03.592Z,496
2017-09-03T04:55:13.858Z,512
2017-09-03T04:56:24.121Z,528
2017-09-03T04:57:33.745Z,548
2017-09-03T04:58:44.013Z,568
2017-09-03T04:59:54.286Z,588
2017-09-03T05:01:04.560Z,608
2017-09-03T05:02:14.825Z,628
2017-09-03T05:03:25.132Z,648
2017-09-03T05:04:34.754Z,664
2017-09-03T05:05:45.025Z,684
2017-09-03T05:06:55.288Z,704
2017-09-03T05:08:05.234Z,724
2017-09-03T05:09:15.503Z,744
2017-09-03T05:10:25.771Z,764
2017-09-03T05:11:35.717Z,792
2017-09-03T05:12:45.981Z,812
2017-09-03T05:13:56.247Z,840
2017-09-03T05:15:06.520Z,860
2017-09-03T05:16:16.786Z,884
2017-09-03T05:17:26.734Z,904
2017-09-03T05:18:36.677Z,924
2017-09-03T05:19:46.952Z,944
2017-09-03T05:20:57.221Z,960
2017-09-03T05:22:07.517Z,976
2017-09-03T05:23:17.789Z,988
2017-09-03T05:24:28.056Z,1004
2017-09-03T05:25:38.321Z,1020
2017-09-03T05:26:48.589Z,1044
2017-09-03T05:27:58.856Z,1072
2017-09-03T05:29:09.123Z,1108
2017-09-03T05:30:19.390Z,1148
2017-09-03T05:31:29.658Z,1192
2017-09-03T05:32:39.283Z,1240
2017-09-03T05:33:49.226Z,1288
2017-09-03T05:34:59.501Z,1332
2017-09-03T05:36:09.770Z,1368
2017-09-03T05:37:20.053Z,1416
2017-09-03T05:38:29.999Z,1468
2017-09-03T05:39:39.626Z,1532
2017-09-03T05:40:49.606Z,1608
2017-09-03T05:41:59.549Z,1660
2017-09-03T05:43:09.819Z,1688
2017-09-03T05:44:20.088Z,1716
2017-09-03T05:45:30.353Z,1744
2017-09-03T05:46:40.635Z,1780
2017-09-03T05:47:50.581Z,1844
2017-09-03T05:49:00.847Z,1912
2017-09-03T05:50:11.154Z,1976
2017-09-03T05:51:21.098Z,2040
2017-09-03T05:52:31.363Z,2116
2017-09-03T05:53:41.312Z,2200
2017-09-03T05:54:51.580Z,2268
2017-09-03T05:56:01.203Z,2320
2017-09-03T05:57:11.155Z,2360
2017-09-03T05:58:21.422Z,2412
2017-09-03T05:59:31.376Z,2476
2017-09-03T06:00:41.643Z,2532
2017-09-03T06:01:51.910Z,2580
2017-09-03T06:03:02.172Z,2640
2017-09-03T06:04:12.442Z,2696
2017-09-03T06:05:22.712Z,2752
2017-09-03T06:06:32.660Z,2808
2017-09-03T06:07:42.930Z,2860
2017-09-03T06:08:53.195Z,2920
2017-09-03T06:10:03.179Z,2996
2017-09-03T06:11:12.806Z,3088
2017-09-03T06:12:22.755Z,3180
2017-09-03T06:13:33.021Z,3280
2017-09-03T06:14:43.288Z,3368
2017-09-03T06:15:53.555Z,3432
2017-09-03T06:17:03.829Z,3464
2017-09-03T06:18:13.773Z,3452
2017-09-03T06:19:23.428Z,3468
2017-09-03T06:20:33.726Z,3520
2017-09-03T06:21:44.009Z,3608
2017-09-03T06:22:53.962Z,3716
2017-09-03T06:24:04.243Z,3860
2017-09-03T06:25:14.190Z,4036
2017-09-03T06:26:24.134Z,4112
2017-09-03T06:27:34.084Z,4096
2017-09-03T06:28:44.030Z,4064
2017-09-03T06:29:54.295Z,4028
2017-09-03T06:31:04.587Z,4064
2017-09-03T06:32:14.853Z,4248
2017-09-03T06:33:25.137Z,4532
2017-09-03T06:34:34.760Z,4952
2017-09-03T06:35:44.705Z,5468
2017-09-03T06:36:54.651Z,5980
2017-09-03T06:38:04.933Z,6484
2017-09-03T06:39:15.205Z,6928
2017-09-03T06:40:25.475Z,6992
2017-09-03T06:41:35.098Z,6804
2017-09-03T06:42:45.366Z,6776
2017-09-03T06:43:55.632Z,6876
2017-09-03T06:45:05.902Z,7100
2017-09-03T06:46:16.167Z,7372
2017-09-03T06:47:26.438Z,7516
2017-09-03T06:48:36.702Z,7596
2017-09-03T06:49:46.973Z,7408
2017-09-03T06:50:57.253Z,7112
2017-09-03T06:52:07.518Z,6740
2017-09-03T06:53:17.464Z,6276
2017-09-03T06:54:27.732Z,5888
2017-09-03T06:55:37.037Z,5616
2017-09-03T06:56:47.303Z,5444
2017-09-03T06:57:57.609Z,5424
2017-09-03T06:59:07.874Z,5288
2017-09-03T07:00:18.145Z,4928
2017-09-03T07:01:28.093Z,4696
2017-09-03T07:02:38.037Z,4624
2017-09-03T07:03:48.309Z,4868
2017-09-03T07:04:58.575Z,5212
2017-09-03T07:06:08.846Z,5400
2017-09-03T07:07:19.126Z,5660
2017-09-03T07:08:29.392Z,6188
2017-09-03T07:09:39.016Z,6560
2017-09-03T07:10:49.287Z,6840
2017-09-03T07:11:58.911Z,7008
2017-09-03T07:13:09.196Z,7120
2017-09-03T07:14:19.465Z,7232
2017-09-03T07:15:29.732Z,7316
2017-09-03T07:16:39.679Z,7344
2017-09-03T07:17:49.946Z,7500
2017-09-03T07:19:00.216Z,7572
2017-09-03T07:20:10.165Z,7524
2017-09-03T07:21:20.445Z,7380
2017-09-03T07:22:30.719Z,7184
2017-09-03T07:23:40.665Z,6968
2017-09-03T07:24:50.936Z,6768
2017-09-03T07:26:01.213Z,6616
2017-09-03T07:27:11.482Z,6524
2017-09-03T07:28:21.751Z,6516
2017-09-03T07:29:31.694Z,6572
2017-09-03T07:30:41.964Z,6652
2017-09-03T07:31:52.234Z,6732
2017-09-03T07:33:02.187Z,6848
2017-09-03T07:34:12.459Z,6988
2017-09-03T07:35:22.405Z,7100
2017-09-03T07:36:32.351Z,7156
2017-09-03T07:37:42.294Z,7160
2017-09-03T07:38:52.242Z,7164
2017-09-03T07:40:02.191Z,7224
2017-09-03T07:41:12.145Z,7336
2017-09-03T07:42:22.411Z,7432
2017-09-03T07:43:32.359Z,7496
2017-09-03T07:44:42.624Z,7532
2017-09-03T07:45:52.577Z,7580
2017-09-03T07:47:02.521Z,7612
2017-09-03T07:48:12.154Z,7640
2017-09-03T07:49:22.429Z,7632
2017-09-03T07:50:32.376Z,7672
2017-09-03T07:51:42.676Z,7712
2017-09-03T07:52:52.942Z,7692
2017-09-03T07:54:02.570Z,7660
2017-09-03T07:55:12.520Z,7576
2017-09-03T07:56:22.787Z,7520
2017-09-03T07:57:33.059Z,7472
2017-09-03T07:58:43.323Z,7476
2017-09-03T07:59:52.949Z,7520
2017-09-03T08:01:02.574Z,7596
2017-09-03T08:02:12.525Z,7708
2017-09-03T08:03:22.471Z,7856
2017-09-03T08:04:32.098Z,8008
2017-09-03T08:05:42.368Z,8076
2017-09-03T08:06:52.318Z,8084
2017-09-03T08:08:02.589Z,8076
2017-09-03T08:09:12.863Z,8076
2017-09-03T08:10:23.138Z,8116
2017-09-03T08:11:32.769Z,8144
2017-09-03T08:12:43.036Z,8168
2017-09-03T08:13:53.304Z,8344
2017-09-03T08:15:03.573Z,8520
2017-09-03T08:16:13.522Z,8616
2017-09-03T08:17:23.792Z,8592
2017-09-03T08:18:33.738Z,8612
2017-09-03T08:19:44.005Z,8696
2017-09-03T08:20:53.997Z,8748
2017-09-03T08:22:03.942Z,8848
2017-09-03T08:23:13.897Z,9036
2017-09-03T08:24:23.527Z,9236
2017-09-03T08:25:33.484Z,9428
2017-09-03T08:26:43.111Z,9460
2017-09-03T08:27:53.059Z,9408
2017-09-03T08:29:03.334Z,9300
2017-09-03T08:30:13.283Z,9148
2017-09-03T08:31:23.230Z,9080
2017-09-03T08:32:33.510Z,9108
2017-09-03T08:33:43.460Z,9244
2017-09-03T08:34:53.741Z,9432
2017-09-03T08:36:03.691Z,9552
2017-09-03T08:37:13.646Z,9552
2017-09-03T08:38:23.600Z,9564
2017-09-03T08:39:33.888Z,9592
2017-09-03T08:40:44.169Z,9676
2017-09-03T08:41:54.444Z,9784
2017-09-03T08:43:04.720Z,9820
2017-09-03T08:44:14.027Z,9724
2017-09-03T08:45:24.341Z,9620
2017-09-03T08:46:34.609Z,9552
2017-09-03T08:47:44.884Z,9684
2017-09-03T08:48:54.851Z,9968
2017-09-03T08:50:05.124Z,10116
2017-09-03T08:51:15.401Z,10164
2017-09-03T08:52:25.668Z,9940
2017-09-03T08:53:35.629Z,9504
2017-09-03T08:54:45.583Z,9336
2017-09-03T08:55:54.887Z,9568
2017-09-03T08:57:04.847Z,9988
2017-09-03T08:58:14.799Z,10388
2017-09-03T08:59:25.069Z,10656
2017-09-03T09:00:34.695Z,10812
2017-09-03T09:01:44.964Z,10908
2017-09-03T09:02:54.915Z,10860
2017-09-03T09:04:05.190Z,10712
2017-09-03T09:05:15.461Z,10520
2017-09-03T09:06:25.735Z,10416
2017-09-03T09:07:35.687Z,10448
2017-09-03T09:08:45.964Z,10528
2017-09-03T09:09:56.235Z,10596
2017-09-03T09:11:06.509Z,10644
2017-09-03T09:12:16.782Z,10772
2017-09-03T09:13:26.409Z,11040
2017-09-03T09:14:36.366Z,11372
2017-09-03T09:15:46.638Z,11620
2017-09-03T09:16:56.910Z,11840
2017-09-03T09:18:07.186Z,12024
2017-09-03T09:19:17.469Z,12104
2017-09-03T09:20:27.424Z,12028
2017-09-03T09:21:37.694Z,11832
2017-09-03T09:22:47.968Z,11772
2017-09-03T09:23:57.933Z,11820
2017-09-03T09:25:08.212Z,11868
2017-09-03T09:26:18.493Z,11848
2017-09-03T09:27:28.122Z,11888
2017-09-03T09:28:37.753Z,11912
2017-09-03T09:29:47.703Z,12056
2017-09-03T09:30:57.656Z,12124
2017-09-03T09:32:07.605Z,12004
2017-09-03T09:33:17.881Z,11836
2017-09-03T09:34:28.159Z,11672
2017-09-03T09:35:38.110Z,11660
2017-09-03T09:36:47.743Z,11732
2017-09-03T09:37:57.699Z,11852
2017-09-03T09:39:07.972Z,11980
2017-09-03T09:40:18.243Z,12048
2017-09-03T09:41:28.524Z,12080
2017-09-03T09:42:37.836Z,12088
2017-09-03T09:43:47.785Z,11816
2017-09-03T09:44:58.076Z,11608
2017-09-03T09:46:07.707Z,11504
2017-09-03T09:47:17.981Z,11612
2017-09-03T09:48:28.260Z,11068
2017-09-03T09:49:38.537Z,10348
2017-09-03T09:50:48.809Z,9948
2017-09-03T09:51:59.089Z,9424
2017-09-03T09:53:08.722Z,8852
2017-09-03T09:54:19.003Z,8436
2017-09-03T09:55:28.955Z,7984
2017-09-03T09:56:38.907Z,7588
2017-09-03T09:57:48.858Z,7216
2017-09-03T09:58:59.142Z,6872
2017-09-03T10:00:09.419Z,6672
2017-09-03T10:01:19.694Z,6576
2017-09-03T10:02:29.649Z,6516
2017-09-03T10:03:39.925Z,6392
2017-09-03T10:04:49.872Z,6292
2017-09-03T10:06:00.146Z,6448
2017-09-03T10:07:10.094Z,6716
2017-09-03T10:08:20.370Z,6628
2017-09-03T10:09:30.641Z,7240
2017-09-03T10:10:40.271Z,8220
2017-09-03T10:11:50.223Z,9356
2017-09-03T10:13:00.497Z,10716
2017-09-03T10:14:10.453Z,11768
2017-09-03T10:15:20.083Z,12640
2017-09-03T10:16:30.358Z,13204
2017-09-03T10:17:40.326Z,13512
2017-09-03T10:18:50.602Z,13572
2017-09-03T10:20:00.556Z,13352
2017-09-03T10:21:10.509Z,13260
2017-09-03T10:22:20.788Z,13568
2017-09-03T10:23:30.417Z,14012
2017-09-03T10:24:40.723Z,14328
2017-09-03T10:25:50.997Z,14596
2017-09-03T10:27:00.949Z,14504
2017-09-03T10:28:10.583Z,14660
2017-09-03T10:29:20.861Z,14776
2017-09-03T10:30:31.160Z,14904
2017-09-03T10:31:41.111Z,15148
2017-09-03T10:32:51.067Z,15584
2017-09-03T10:34:01.041Z,15572
2017-09-03T10:35:10.675Z,16256
2017-09-03T10:36:20.957Z,16672
2017-09-03T10:37:30.908Z,16896
2017-09-03T10:38:41.185Z,16960
2017-09-03T10:39:51.136Z,17024
2017-09-03T10:41:01.103Z,17088
2017-09-03T10:42:11.377Z,16736
2017-09-03T10:43:21.663Z,16160
2017-09-03T10:44:31.934Z,15808
2017-09-03T10:45:41.565Z,16128
2017-09-03T10:46:51.529Z,16416
2017-09-03T10:48:02.058Z,15980
2017-09-03T10:49:12.346Z,16000
2017-09-03T10:50:22.642Z,15628
2017-09-03T10:51:32.929Z,15128
2017-09-03T10:52:43.204Z,14824
2017-09-03T10:53:53.164Z,14396
2017-09-03T10:55:03.449Z,14144
2017-09-03T10:56:13.730Z,13624
2017-09-03T10:57:24.003Z,14016
2017-09-03T10:58:33.965Z,14768
2017-09-03T10:59:43.596Z,15564
2017-09-03T11:00:53.871Z,15864
2017-09-03T11:02:04.153Z,16352
2017-09-03T11:03:14.431Z,16640
2017-09-03T11:04:24.704Z,16416
2017-09-03T11:05:34.655Z,15524
2017-09-03T11:06:44.622Z,14488
2017-09-03T11:07:54.578Z,13504
2017-09-03T11:09:04.859Z,12836
2017-09-03T11:10:15.134Z,12516
2017-09-03T11:11:25.108Z,12296
2017-09-03T11:12:35.060Z,12132
2017-09-03T11:13:45.336Z,12184
2017-09-03T11:14:54.969Z,18336
2017-09-03T11:16:04.936Z,46016
2017-09-03T11:17:14.891Z,53376
2017-09-03T11:18:25.176Z,52992
2017-09-03T11:19:35.138Z,49760
2017-09-03T11:20:45.096Z,54816
2017-09-03T11:21:54.730Z,53952
2017-09-03T11:23:04.366Z,54656
2017-09-03T11:24:14.641Z,58976
2017-09-03T11:25:24.276Z,58336
2017-09-03T11:26:34.281Z,56352
2017-09-03T11:27:44.236Z,54656
2017-09-03T11:28:54.519Z,58944
2017-09-03T11:30:04.799Z,62656
2017-09-03T11:31:15.096Z,58560
2017-09-03T11:32:25.061Z,59264
2017-09-03T11:33:34.707Z,61344
2017-09-03T11:34:44.990Z,59936
2017-09-03T11:35:55.272Z,58240
2017-09-03T11:37:05.232Z,62368
2017-09-03T11:38:15.192Z,60480
2017-09-03T11:39:25.488Z,58560
2017-09-03T11:40:35.455Z,59328
2017-09-03T11:41:45.736Z,62304
2017-09-03T11:42:55.381Z,64800
2017-09-03T11:44:05.661Z,64096
2017-09-03T11:45:15.945Z,60352
2017-09-03T11:46:25.906Z,31552
2017-09-03T11:47:35.870Z,14888
2017-09-03T11:48:46.160Z,16236
2017-09-03T11:49:55.800Z,29216
2017-09-03T11:51:06.083Z,50592
2017-09-03T11:52:16.043Z,59072
2017-09-03T11:53:26.336Z,56320
2017-09-03T11:54:35.980Z,62368
2017-09-03T11:55:45.621Z,62688
2017-09-03T11:56:55.907Z,62016
2017-09-03T11:58:06.196Z,59488
2017-09-03T11:59:16.483Z,49312
2017-09-03T12:00:26.455Z,63616
2017-09-03T12:01:36.740Z,57312
2017-09-03T12:02:47.027Z,63072
2017-09-03T12:03:57.313Z,63552
2017-09-03T12:05:07.295Z,61440
2017-09-03T12:06:17.607Z,65088
2017-09-03T12:07:27.890Z,66464
2017-09-03T12:08:37.858Z,66176
2017-09-03T12:09:47.819Z,64640
2017-09-03T12:10:58.110Z,64704
2017-09-03T12:12:08.416Z,61152
2017-09-03T12:13:18.054Z,57376
2017-09-03T12:14:28.021Z,58016
2017-09-03T12:15:37.667Z,60544
2017-09-03T12:16:47.630Z,62656
2017-09-03T12:17:57.922Z,63264
2017-09-03T12:19:07.580Z,61376
2017-09-03T12:20:17.548Z,60096
2017-09-03T12:21:27.835Z,61856
2017-09-03T12:22:37.802Z,63168
2017-09-03T12:23:48.106Z,62944
2017-09-03T12:24:58.077Z,63008
2017-09-03T12:26:08.042Z,61312
2017-09-03T12:27:17.685Z,60352
2017-09-03T12:28:27.652Z,62400
2017-09-03T12:29:37.941Z,59104
2017-09-03T12:30:47.907Z,59552
2017-09-03T12:31:58.191Z,62016
2017-09-03T12:33:08.158Z,63360
2017-09-03T12:34:18.458Z,63264
2017-09-03T12:35:28.428Z,62400
2017-09-03T12:36:38.713Z,60576
2017-09-03T12:37:49.010Z,62816
2017-09-03T12:38:59.303Z,64128
2017-09-03T12:40:09.591Z,67072
2017-09-03T12:41:19.557Z,62720
2017-09-03T12:42:29.525Z,63936
2017-09-03T12:43:39.496Z,64576
2017-09-03T12:44:49.461Z,63872
2017-09-03T12:45:59.758Z,64128
2017-09-03T12:47:09.722Z,64288
2017-09-03T12:48:20.007Z,66624
2017-09-03T12:49:30.296Z,66496
2017-09-03T12:50:40.587Z,63552
2017-09-03T12:51:50.556Z,63968
2017-09-03T12:53:00.846Z,66464
2017-09-03T12:54:11.139Z,61056
2017-09-03T12:55:21.429Z,60448
2017-09-03T12:56:31.716Z,59552
2017-09-03T12:57:41.683Z,58944
2017-09-03T12:58:51.651Z,57856
2017-09-03T13:00:01.946Z,53408
2017-09-03T13:01:12.244Z,59808
2017-09-03T13:02:22.532Z,64736
2017-09-03T13:03:32.176Z,61600
2017-09-03T13:04:42.141Z,59776
2017-09-03T13:05:52.428Z,62848
2017-09-03T13:07:02.073Z,61696
2017-09-03T13:08:12.363Z,58400
2017-09-03T13:09:22.328Z,61568
2017-09-03T13:10:32.329Z,61856
2017-09-03T13:11:42.297Z,66944
2017-09-03T13:12:52.587Z,68928
2017-09-03T13:14:01.913Z,69056
2017-09-03T13:15:12.204Z,67360
2017-09-03T13:16:22.178Z,64256
2017-09-03T13:17:32.151Z,63904
2017-09-03T13:18:42.440Z,65888
2017-09-03T13:19:52.406Z,64864
2017-09-03T13:21:02.693Z,61664
2017-09-03T13:22:12.660Z,59360
2017-09-03T13:23:22.948Z,55808
2017-09-03T13:24:33.242Z,52256
2017-09-03T13:25:43.534Z,49344
2017-09-03T13:26:53.821Z,50016
2017-09-03T13:28:04.119Z,49728
2017-09-03T13:29:14.409Z,51328
2017-09-03T13:30:24.702Z,52480
2017-09-03T13:31:34.992Z,49344
2017-09-03T13:32:44.959Z,51136
2017-09-03T13:33:55.247Z,48448
2017-09-03T13:35:05.213Z,46144
2017-09-03T13:36:15.508Z,47552
2017-09-03T13:37:25.150Z,51520
2017-09-03T13:38:35.125Z,54400
2017-09-03T13:39:45.413Z,58144
2017-09-03T13:40:55.701Z,58784
2017-09-03T13:42:05.670Z,58592
2017-09-03T13:43:16.001Z,61344
2017-09-03T13:44:26.294Z,65504
2017-09-03T13:45:36.261Z,73120
2017-09-03T13:46:46.229Z,71552
2017-09-03T13:47:56.523Z,67936
2017-09-03T13:49:06.819Z,65696
2017-09-03T13:50:17.108Z,62816
2017-09-03T13:51:27.396Z,61120
2017-09-03T13:52:37.364Z,64448
2017-09-03T13:53:47.652Z,70976
2017-09-03T13:54:57.941Z,72896
2017-09-03T13:56:08.234Z,67136
2017-09-03T13:57:17.880Z,63136
2017-09-03T13:58:28.171Z,56736
2017-09-03T13:59:38.454Z,55136
2017-09-03T14:00:48.421Z,19424
2017-09-03T14:01:58.712Z,9008
2017-09-03T14:03:09.012Z,8336
2017-09-03T14:04:19.301Z,8936
2017-09-03T14:05:29.267Z,10676
2017-09-03T14:06:39.553Z,15456
2017-09-03T14:07:49.551Z,15440
2017-09-03T14:08:59.513Z,53152
2017-09-03T14:10:09.799Z,66880
2017-09-03T14:11:20.084Z,69632
2017-09-03T14:12:30.377Z,68640
2017-09-03T14:13:40.662Z,66784
2017-09-03T14:14:50.948Z,67680
2017-09-03T14:16:01.233Z,65344
2017-09-03T14:17:11.517Z,64800
2017-09-03T14:18:21.160Z,64032
2017-09-03T14:19:31.444Z,63232
2017-09-03T14:20:41.787Z,65504
2017-09-03T14:21:52.075Z,65856
2017-09-03T14:23:02.044Z,62592
2017-09-03T14:24:12.331Z,62048
2017-09-03T14:25:21.981Z,61120
2017-09-03T14:26:31.946Z,62464
2017-09-03T14:27:41.935Z,62336
2017-09-03T14:28:52.226Z,61344
2017-09-03T14:30:01.870Z,59744
2017-09-03T14:31:12.156Z,58656
2017-09-03T14:32:22.121Z,56768
2017-09-03T14:33:32.089Z,57312
2017-09-03T14:34:42.377Z,59648
2017-09-03T14:35:52.341Z,60288
2017-09-03T14:37:02.665Z,60352
2017-09-03T14:38:12.310Z,62560
2017-09-03T14:39:22.278Z,63040
2017-09-03T14:40:32.567Z,61984
2017-09-03T14:41:42.860Z,62432
2017-09-03T14:42:53.149Z,60672
2017-09-03T14:44:02.794Z,62048
2017-09-03T14:45:12.761Z,62944
2017-09-03T14:46:23.049Z,59872
2017-09-03T14:47:33.016Z,59872
2017-09-03T14:48:43.306Z,53952
2017-09-03T14:49:53.594Z,59520
2017-09-03T14:51:03.564Z,58720
2017-09-03T14:52:12.888Z,59296
2017-09-03T14:53:23.179Z,59168
2017-09-03T14:54:33.147Z,59872
2017-09-03T14:55:43.125Z,59520
2017-09-03T14:56:53.409Z,59488
2017-09-03T14:58:03.707Z,59264
2017-09-03T14:59:13.671Z,57024
2017-09-03T15:00:23.959Z,57760
2017-09-03T15:01:33.925Z,57376
2017-09-03T15:02:44.216Z,57312
2017-09-03T15:03:54.502Z,57600
2017-09-03T15:05:04.149Z,56960
2017-09-03T15:06:14.118Z,56800
2017-09-03T15:07:24.094Z,55872
2017-09-03T15:08:34.064Z,54144
2017-09-03T15:09:44.044Z,52832
2017-09-03T15:10:54.330Z,54720
2017-09-03T15:12:04.618Z,54848
2017-09-03T15:13:14.911Z,53280
2017-09-03T15:14:25.197Z,51008
2017-09-03T15:15:35.164Z,49344
2017-09-03T15:16:45.130Z,47744
2017-09-03T15:17:55.098Z,50304
2017-09-03T15:19:05.063Z,37184
2017-09-03T15:20:15.040Z,43648
2017-09-03T15:21:25.336Z,42720
2017-09-03T15:22:34.981Z,29664
2017-09-03T15:23:45.267Z,23808
2017-09-03T15:24:55.232Z,24352
2017-09-03T15:26:05.203Z,11224
2017-09-03T15:27:15.176Z,8660
2017-09-03T15:28:25.473Z,8572
2017-09-03T15:29:35.114Z,8544
2017-09-03T15:30:45.079Z,7508
2017-09-03T15:31:55.366Z,7532
2017-09-03T15:33:05.649Z,6984
2017-09-03T15:34:15.936Z,6756
2017-09-03T15:35:25.906Z,6668
2017-09-03T15:36:35.868Z,6564
2017-09-03T15:37:46.155Z,6608
2017-09-03T15:38:56.438Z,6292
2017-09-03T15:40:06.721Z,6176
2017-09-03T15:41:16.046Z,6164
2017-09-03T15:42:25.680Z,6120
2017-09-03T15:43:35.320Z,6032
2017-09-03T15:44:45.600Z,6012
2017-09-03T15:45:55.569Z,6012
2017-09-03T15:47:05.538Z,6048
2017-09-03T15:48:15.817Z,6016